Time;durP1;ratioP1;P1;durP2;ratioP2;P2;SDS_P1;SDS_P2;PMS_P1;PMS_P2;Temp;Humidity;BMP_temperature;BMP_pressure;BME280_temperature;BME280_humidity;BME280_pressure;Samples;Min_cycle;Max_cycle;Signal;HPM_P1;HPM_P2
2021/05/17 00:02:04;;;;;;;0.22;0.22;;;16.50;82.60;;;;;;4191860;28;20473;-47
2021/05/17 00:04:31;;;;;;;0.00;0.00;;;16.50;82.50;;;;;;4194968;28;20051;-44
2021/05/17 00:06:54;;;;;;;0.00;0.00;;;16.50;82.50;;;;;;4208569;28;20048;-45
2021/05/17 00:09:16;;;;;;;0.00;0.00;;;16.50;82.50;;;;;;4207365;28;20143;-47
2021/05/17 00:11:37;;;;;;;0.00;0.00;;;16.50;82.50;;;;;;4208538;28;20071;-45
2021/05/17 00:14:00;;;;;;;0.00;0.00;;;16.50;82.60;;;;;;4208254;28;20448;-45
2021/05/17 00:16:21;;;;;;;0.13;0.13;;;16.50;82.60;;;;;;4208426;28;20122;-45
2021/05/17 00:18:43;;;;;;;0.10;0.10;;;16.40;82.50;;;;;;4208004;28;20051;-45
2021/05/17 00:21:07;;;;;;;0.00;0.00;;;16.50;82.60;;;;;;4191898;28;20060;-45
2021/05/17 00:23:30;;;;;;;0.00;0.00;;;16.40;82.50;;;;;;4202644;28;20101;-45
2021/05/17 00:25:52;;;;;;;0.00;0.00;;;16.40;82.60;;;;;;4208355;28;20616;-48
2021/05/17 00:28:14;;;;;;;0.00;0.00;;;16.40;82.60;;;;;;4208247;28;20075;-45
2021/05/17 00:30:36;;;;;;;1.00;0.52;;;16.40;82.60;;;;;;4207937;28;20052;-45
2021/05/17 00:32:58;;;;;;;0.00;0.00;;;16.40;82.60;;;;;;4208457;28;20139;-47
2021/05/17 00:35:21;;;;;;;0.20;0.20;;;16.40;82.70;;;;;;4192436;28;20056;-47
2021/05/17 00:37:43;;;;;;;0.00;0.00;;;16.40;82.70;;;;;;4191533;28;20144;-48
2021/05/17 00:40:08;;;;;;;0.00;0.00;;;16.40;82.70;;;;;;4191361;28;20044;-50
2021/05/17 00:42:30;;;;;;;0.05;0.05;;;16.40;82.70;;;;;;4191366;28;20055;-46
2021/05/17 00:44:52;;;;;;;0.00;0.00;;;16.40;82.70;;;;;;4176432;28;20491;-47
2021/05/17 00:47:16;;;;;;;0.00;0.00;;;16.40;82.80;;;;;;4174574;28;20510;-45
2021/05/17 00:49:39;;;;;;;0.00;0.00;;;16.40;82.70;;;;;;4187679;28;20045;-48
2021/05/17 00:52:01;;;;;;;0.10;0.10;;;16.40;82.80;;;;;;4190551;28;20071;-47
2021/05/17 00:54:23;;;;;;;0.00;0.00;;;16.40;82.90;;;;;;4191499;28;20060;-45
2021/05/17 00:56:45;;;;;;;;;;;16.40;82.90;;;;;;4191665;28;20050;-47
2021/05/17 00:59:07;;;;;;;0.00;0.00;;;16.40;82.90;;;;;;4191203;28;19931;-47
2021/05/17 01:01:29;;;;;;;0.25;0.25;;;16.40;82.80;;;;;;4192968;28;20045;-47
2021/05/17 01:03:50;;;;;;;0.00;0.00;;;16.40;82.90;;;;;;4186037;28;20056;-45
2021/05/17 01:06:19;;;;;;;0.00;0.00;;;16.30;82.90;;;;;;4172933;28;20534;-45
2021/05/17 01:08:47;;;;;;;0.00;0.00;;;16.30;82.90;;;;;;4191222;28;20058;-47
2021/05/17 01:11:11;;;;;;;0.00;0.00;;;16.30;82.90;;;;;;4192027;28;20074;-44
2021/05/17 01:13:34;;;;;;;0.00;0.00;;;16.30;82.90;;;;;;4207853;28;20056;-48
2021/05/17 01:15:57;;;;;;;0.47;0.47;;;16.30;82.80;;;;;;4205999;28;20093;-46
2021/05/17 01:18:19;;;;;;;0.00;0.00;;;16.30;82.90;;;;;;4202381;28;20533;-45
2021/05/17 01:20:43;;;;;;;0.10;0.10;;;16.30;82.90;;;;;;4174494;28;20083;-45
2021/05/17 01:23:30;;;;;;;0.00;0.00;;;16.30;82.90;;;;;;4189515;28;20668;-48
2021/05/17 01:26:02;;;;;;;1.50;1.40;;;16.30;82.90;;;;;;4207696;28;20410;-44
2021/05/17 01:28:29;;;;;;;0.00;0.00;;;16.30;83.10;;;;;;4207352;28;20508;-45
2021/05/17 01:30:52;;;;;;;0.00;0.00;;;16.30;83.00;;;;;;4206808;28;20181;-45
2021/05/17 01:33:14;;;;;;;1.38;1.27;;;16.30;83.10;;;;;;4202004;28;20568;-45
2021/05/17 01:35:36;;;;;;;0.10;0.10;;;16.30;83.10;;;;;;4190890;28;20049;-45
2021/05/17 01:37:58;;;;;;;0.00;0.00;;;16.30;83.10;;;;;;4189256;28;20048;-45
2021/05/17 01:40:22;;;;;;;0.00;0.00;;;16.30;83.10;;;;;;4189646;28;20487;-46
2021/05/17 01:42:46;;;;;;;3.97;1.02;;;16.30;83.10;;;;;;4205463;28;20097;-46
2021/05/17 01:45:10;;;;;;;0.20;0.20;;;16.30;83.10;;;;;;4207274;28;20051;-45
2021/05/17 01:47:40;;;;;;;0.75;0.75;;;16.30;83.20;;;;;;4205198;28;20054;-48
2021/05/17 01:50:02;;;;;;;0.20;0.20;;;16.30;83.10;;;;;;4179517;28;20053;-45
2021/05/17 01:52:26;;;;;;;0.00;0.00;;;16.30;83.20;;;;;;4189355;28;20044;-45
2021/05/17 01:54:49;;;;;;;0.00;0.00;;;16.30;83.20;;;;;;4189944;28;20540;-45
2021/05/17 01:57:12;;;;;;;0.00;0.00;;;16.30;83.20;;;;;;4189407;28;20044;-44
2021/05/17 01:59:34;;;;;;;0.10;0.10;;;16.30;83.20;;;;;;4190626;28;20048;-46
2021/05/17 02:01:58;;;;;;;0.00;0.00;;;16.20;83.20;;;;;;4192373;28;20059;-48
2021/05/17 02:04:22;;;;;;;0.00;0.00;;;16.30;83.60;;;;;;4190222;28;20771;-45
2021/05/17 02:06:44;;;;;;;0.00;0.00;;;16.30;83.70;;;;;;4189159;28;20102;-53
2021/05/17 02:09:07;;;;;;;0.10;0.10;;;16.20;83.40;;;;;;4190461;28;20052;-47
2021/05/17 02:11:30;;;;;;;0.00;0.00;;;16.20;83.40;;;;;;4190690;28;20056;-45
2021/05/17 02:14:05;;;;;;;0.00;0.00;;;16.20;83.30;;;;;;4173507;28;20049;-44
2021/05/17 02:16:27;;;;;;;2.25;0.95;;;16.20;83.40;;;;;;4205235;28;20050;-46
2021/05/17 02:18:49;;;;;;;0.00;0.00;;;16.20;83.30;;;;;;4182199;28;20049;-49
2021/05/17 02:21:12;;;;;;;0.00;0.00;;;16.20;83.30;;;;;;4176777;28;20495;-44
2021/05/17 02:23:34;;;;;;;0.30;0.30;;;16.20;83.30;;;;;;4177041;28;20515;-45
2021/05/17 02:25:59;;;;;;;0.05;0.05;;;16.20;83.40;;;;;;4189704;28;20513;-48
2021/05/17 02:28:21;;;;;;;0.10;0.10;;;16.20;83.40;;;;;;4191793;28;20094;-46
2021/05/17 02:30:44;;;;;;;0.10;0.10;;;16.20;83.50;;;;;;4178993;28;20051;-45
2021/05/17 02:33:07;;;;;;;0.10;0.10;;;16.20;83.50;;;;;;4193571;28;20044;-44
2021/05/17 02:35:31;;;;;;;0.00;0.00;;;16.20;83.50;;;;;;4191772;28;20131;-46
2021/05/17 02:37:53;;;;;;;0.00;0.00;;;16.20;83.50;;;;;;4191987;28;20564;-45
2021/05/17 02:40:17;;;;;;;0.40;0.40;;;16.20;83.50;;;;;;4177959;28;20049;-46
2021/05/17 02:42:43;;;;;;;0.00;0.00;;;16.20;83.60;;;;;;4177025;28;20049;-45
2021/05/17 02:45:07;;;;;;;0.00;0.00;;;16.10;83.50;;;;;;4175600;28;20495;-49
2021/05/17 02:47:34;;;;;;;0.45;0.45;;;16.10;83.50;;;;;;4176418;28;20056;-47
2021/05/17 02:49:56;;;;;;;0.00;0.00;;;16.10;83.50;;;;;;4187291;28;20423;-47
2021/05/17 02:52:17;;;;;;;0.00;0.00;;;16.10;83.50;;;;;;4194643;28;20513;-46
2021/05/17 02:54:42;;;;;;;0.00;0.00;;;16.10;83.60;;;;;;4193037;28;20083;-45
2021/05/17 02:57:12;;;;;;;0.90;0.68;;;16.10;83.60;;;;;;4194378;28;20466;-47
2021/05/17 03:00:07;;;;;;;0.00;0.00;;;16.10;83.60;;;;;;4191264;28;20526;-45
2021/05/17 03:02:37;;;;;;;0.00;0.00;;;16.10;83.60;;;;;;4193987;28;20507;-47
2021/05/17 03:05:01;;;;;;;0.00;0.00;;;16.10;83.60;;;;;;4191454;28;20044;-46
2021/05/17 03:07:27;;;;;;;0.00;0.00;;;16.10;83.60;;;;;;4191575;28;20048;-45
2021/05/17 03:09:50;;;;;;;0.35;0.35;;;16.10;83.70;;;;;;4179793;28;20211;-47
2021/05/17 03:12:12;;;;;;;0.00;0.00;;;16.10;84.50;;;;;;4176201;28;20049;-46
2021/05/17 03:14:35;;;;;;;0.00;0.00;;;16.10;83.70;;;;;;4176324;28;20102;-47
2021/05/17 03:17:02;;;;;;;0.00;0.00;;;16.10;83.70;;;;;;4190567;28;20040;-48
2021/05/17 03:19:27;;;;;;;0.00;0.00;;;16.10;83.70;;;;;;4191259;28;20127;-45
2021/05/17 03:21:52;;;;;;;0.00;0.00;;;16.10;83.70;;;;;;4192371;28;20055;-45
2021/05/17 03:24:15;;;;;;;0.00;0.00;;;16.10;83.70;;;;;;4192630;28;20050;-45
2021/05/17 03:26:38;;;;;;;0.00;0.00;;;16.10;83.70;;;;;;4192420;28;20040;-45
2021/05/17 03:28:59;;;;;;;0.00;0.00;;;16.10;83.80;;;;;;4196244;28;20502;-45
2021/05/17 03:31:21;;;;;;;0.00;0.00;;;16.10;83.80;;;;;;4208862;28;20055;-47
2021/05/17 03:33:42;;;;;;;0.03;0.03;;;16.10;84.60;;;;;;4192373;28;20055;-46
2021/05/17 03:36:05;;;;;;;0.00;0.00;;;16.10;83.80;;;;;;4192568;28;20056;-44
2021/05/17 03:38:27;;;;;;;0.00;0.00;;;16.00;83.80;;;;;;4191925;28;20044;-44
2021/05/17 03:40:49;;;;;;;1.45;1.17;;;16.10;83.90;;;;;;4192155;28;20048;-46
2021/05/17 03:43:10;;;;;;;0.00;0.00;;;16.00;83.80;;;;;;4192119;28;20397;-48
2021/05/17 03:45:31;;;;;;;0.05;0.05;;;16.00;83.90;;;;;;4192233;28;20111;-45
2021/05/17 03:47:53;;;;;;;;;;;16.00;83.80;;;;;;4207321;28;20104;-47
2021/05/17 03:50:14;;;;;;;0.10;0.10;;;16.00;83.90;;;;;;4192129;28;20098;-45
2021/05/17 03:52:37;;;;;;;0.00;0.00;;;16.00;83.90;;;;;;4191787;28;20563;-47
2021/05/17 03:54:59;;;;;;;0.20;0.20;;;16.00;83.90;;;;;;4192080;28;20052;-45
2021/05/17 03:57:20;;;;;;;0.00;0.00;;;16.00;83.90;;;;;;4192153;28;20048;-45
2021/05/17 03:59:45;;;;;;;0.00;0.00;;;16.00;83.90;;;;;;4176803;28;20049;-52
2021/05/17 04:02:08;;;;;;;0.00;0.00;;;16.00;84.00;;;;;;4184735;28;20041;-45
2021/05/17 04:04:35;;;;;;;0.00;0.00;;;16.00;84.00;;;;;;4193506;28;20097;-47
2021/05/17 04:07:00;;;;;;;0.00;0.00;;;16.00;84.00;;;;;;4189486;28;20057;-46
2021/05/17 04:14:42;;;;;;;0.00;0.00;;;16.00;84.00;;;;;;4191770;28;20392;-45
2021/05/17 04:17:04;;;;;;;0.32;0.32;;;16.00;84.90;;;;;;4200630;28;20052;-47
2021/05/17 04:19:27;;;;;;;0.00;0.00;;;16.00;84.00;;;;;;4207904;28;20106;-45
2021/05/17 04:21:49;;;;;;;0.57;0.57;;;16.00;84.10;;;;;;4199549;28;20060;-48
2021/05/17 04:24:12;;;;;;;0.38;0.38;;;16.00;84.10;;;;;;4175197;28;20040;-46
2021/05/17 04:26:34;;;;;;;0.30;0.30;;;16.00;84.10;;;;;;4191513;28;20060;-50
2021/05/17 04:28:56;;;;;;;0.00;0.00;;;16.00;84.10;;;;;;4182072;28;20049;-44
2021/05/17 04:31:18;;;;;;;0.13;0.13;;;16.00;84.10;;;;;;4187279;28;20055;-46
2021/05/17 04:33:39;;;;;;;;;;;16.00;84.10;;;;;;4188807;28;20044;-47
2021/05/17 04:36:01;;;;;;;0.00;0.00;;;16.00;84.20;;;;;;4192086;28;20439;-51
2021/05/17 04:38:23;;;;;;;0.00;0.00;;;15.90;84.10;;;;;;4191576;28;20051;-46
2021/05/17 04:40:46;;;;;;;;;;;16.00;84.10;;;;;;4191626;28;20078;-45
2021/05/17 04:43:10;;;;;;;0.00;0.00;;;15.90;84.60;;;;;;4191540;28;20290;-45
2021/05/17 04:45:31;;;;;;;0.00;0.00;;;16.00;84.70;;;;;;4177280;28;20595;-45
2021/05/17 04:47:53;;;;;;;0.03;0.03;;;15.90;84.40;;;;;;4207691;28;20497;-44
2021/05/17 04:50:15;;;;;;;0.00;0.00;;;16.00;84.40;;;;;;4208303;28;20047;-47
2021/05/17 04:52:36;;;;;;;0.00;0.00;;;16.00;84.50;;;;;;4196097;28;20048;-44
2021/05/17 04:54:58;;;;;;;;;;;16.00;84.40;;;;;;4191659;28;20054;-47
2021/05/17 04:57:20;;;;;;;0.00;0.00;;;16.00;84.40;;;;;;4189779;28;19973;-45
2021/05/17 04:59:54;;;;;;;0.00;0.00;;;15.90;85.20;;;;;;4192112;28;20070;-45
2021/05/17 05:02:16;;;;;;;0.00;0.00;;;15.90;84.40;;;;;;4207678;28;20565;-45
2021/05/17 05:04:37;;;;;;;0.00;0.00;;;16.00;84.40;;;;;;4208034;28;20456;-46
2021/05/17 05:07:00;;;;;;;0.00;0.00;;;15.90;84.40;;;;;;4207442;28;20119;-44
2021/05/17 05:09:22;;;;;;;0.10;0.10;;;15.90;84.50;;;;;;4191468;28;20045;-45
2021/05/17 05:11:44;;;;;;;0.00;0.00;;;15.90;84.60;;;;;;4192166;28;20068;-45
2021/05/17 05:14:05;;;;;;;0.00;0.00;;;16.00;84.90;;;;;;4191374;28;20040;-45
2021/05/17 05:16:27;;;;;;;0.00;0.00;;;16.00;85.50;;;;;;4189432;28;20134;-47
2021/05/17 05:18:49;;;;;;;0.30;0.30;;;16.00;85.60;;;;;;4191155;28;20083;-44
2021/05/17 05:21:10;;;;;;;0.00;0.00;;;16.00;85.70;;;;;;4190745;28;20045;-48
2021/05/17 05:23:32;;;;;;;;;;;16.00;85.90;;;;;;4191721;28;20755;-46
2021/05/17 05:26:21;;;;;;;0.00;0.00;;;16.10;86.30;;;;;;4191109;28;20395;-46
2021/05/17 05:28:55;;;;;;;0.10;0.10;;;16.10;85.90;;;;;;4191825;28;20068;-46
2021/05/17 05:31:23;;;;;;;0.00;0.00;;;16.10;85.60;;;;;;4177793;28;20055;-44
2021/05/17 05:33:46;;;;;;;0.00;0.00;;;16.10;85.30;;;;;;4191069;28;20048;-45
2021/05/17 05:36:08;;;;;;;0.40;0.40;;;16.10;86.00;;;;;;4206229;28;20600;-44
2021/05/17 05:38:29;;;;;;;0.00;0.00;;;16.10;85.10;;;;;;4207509;28;20044;-45
2021/05/17 05:40:51;;;;;;;0.00;0.00;;;16.10;85.00;;;;;;4207901;28;20426;-45
2021/05/17 05:43:13;;;;;;;0.00;0.00;;;16.10;85.00;;;;;;4207701;28;20044;-48
2021/05/17 05:45:42;;;;;;;0.73;0.57;;;16.10;84.90;;;;;;4205107;28;20082;-44
2021/05/17 05:48:04;;;;;;;0.10;0.10;;;16.10;84.80;;;;;;4176058;28;20059;-45
2021/05/17 05:50:26;;;;;;;0.00;0.00;;;16.10;84.70;;;;;;4180188;28;20487;-46
2021/05/17 05:52:48;;;;;;;0.00;0.00;;;16.10;84.70;;;;;;4177704;28;20060;-44
2021/05/17 05:55:10;;;;;;;0.15;0.15;;;16.00;85.50;;;;;;4180561;28;20447;-45
2021/05/17 05:57:37;;;;;;;0.75;0.75;;;16.10;84.60;;;;;;4181551;28;20139;-46
2021/05/17 05:59:58;;;;;;;0.45;0.35;;;16.00;84.50;;;;;;4189486;28;20414;-44
2021/05/17 06:02:20;;;;;;;0.10;0.10;;;16.00;84.50;;;;;;4193610;28;20135;-46
2021/05/17 06:04:51;;;;;;;0.00;0.00;;;16.00;84.40;;;;;;4192743;28;20044;-44
2021/05/17 06:07:13;;;;;;;;;;;16.10;84.50;;;;;;4205682;28;20578;-47
2021/05/17 06:09:34;;;;;;;1.17;1.08;;;16.10;84.40;;;;;;4194217;28;19959;-44
2021/05/17 06:11:56;;;;;;;0.38;0.38;;;16.10;84.40;;;;;;4194061;28;20090;-46
2021/05/17 06:14:18;;;;;;;0.30;0.30;;;16.10;84.40;;;;;;4193598;28;20056;-48
2021/05/17 06:16:40;;;;;;;0.55;0.55;;;16.00;84.30;;;;;;4194430;28;20045;-48
2021/05/17 06:19:03;;;;;;;0.00;0.00;;;16.00;84.30;;;;;;4189852;28;20165;-46
2021/05/17 06:21:25;;;;;;;0.28;0.28;;;16.00;84.30;;;;;;4193740;28;20048;-47
2021/05/17 06:23:48;;;;;;;0.00;0.00;;;16.10;84.40;;;;;;4193686;28;20102;-48
2021/05/17 06:26:10;;;;;;;0.13;0.13;;;16.10;84.40;;;;;;4193915;28;20048;-47
2021/05/17 06:28:33;;;;;;;0.00;0.00;;;16.10;84.40;;;;;;4176944;28;20055;-45
2021/05/17 06:30:57;;;;;;;0.20;0.20;;;16.10;85.10;;;;;;4186671;28;20775;-49
2021/05/17 06:33:21;;;;;;;0.00;0.00;;;16.20;85.70;;;;;;4193724;28;20113;-47
2021/05/17 06:35:45;;;;;;;0.00;0.00;;;16.20;85.10;;;;;;4183734;28;20120;-46
2021/05/17 06:38:07;;;;;;;0.03;0.03;;;16.20;84.60;;;;;;4176998;28;20076;-48
2021/05/17 06:40:29;;;;;;;0.00;0.00;;;16.20;84.40;;;;;;4180783;28;20060;-46
2021/05/17 06:42:51;;;;;;;0.40;0.40;;;16.20;84.70;;;;;;4176811;28;20064;-48
2021/05/17 06:45:13;;;;;;;0.00;0.00;;;16.20;85.00;;;;;;4176901;28;20049;-47
2021/05/17 06:47:36;;;;;;;1.75;1.45;;;16.20;85.10;;;;;;4188025;28;20052;-48
2021/05/17 06:49:59;;;;;;;0.20;0.20;;;16.20;85.20;;;;;;4192860;28;20052;-46
2021/05/17 06:52:24;;;;;;;0.10;0.10;;;16.20;85.00;;;;;;4193261;28;20048;-49
2021/05/17 06:54:46;;;;;;;0.20;0.20;;;16.20;85.20;;;;;;4193151;28;20102;-46
2021/05/17 06:57:18;;;;;;;0.35;0.35;;;16.20;85.40;;;;;;4192507;28;20048;-50
2021/05/17 06:59:45;;;;;;;1.75;1.65;;;16.20;85.30;;;;;;4192320;28;20521;-50
2021/05/17 07:02:09;;;;;;;0.25;0.25;;;16.20;85.30;;;;;;4191950;28;20052;-48
2021/05/17 07:04:31;;;;;;;0.75;0.75;;;16.20;85.20;;;;;;4193212;28;20465;-48
2021/05/17 07:06:55;;;;;;;0.17;0.17;;;16.20;85.20;;;;;;4193082;28;20052;-51
2021/05/17 07:12:01;;;;;;;0.82;0.82;;;16.20;86.20;;;;;;4193061;28;20044;-49
2021/05/17 07:14:25;;;;;;;0.55;0.55;;;16.20;86.60;;;;;;4193051;28;20177;-47
2021/05/17 07:16:47;;;;;;;0.00;0.00;;;16.20;86.90;;;;;;4193080;28;20500;-51
2021/05/17 07:19:08;;;;;;;0.00;0.00;;;16.20;86.50;;;;;;4193053;28;20053;-50
2021/05/17 07:24:10;;;;;;;0.15;0.15;;;16.20;86.20;;;;;;4189789;28;20476;-52
2021/05/17 07:26:32;;;;;;;0.45;0.45;;;16.20;86.10;;;;;;4189881;28;20053;-50
2021/05/17 07:28:53;;;;;;;8.05;0.98;;;16.20;86.10;;;;;;4192776;28;20437;-51
2021/05/17 07:31:17;;;;;;;2.85;1.25;;;16.20;86.10;;;;;;4192742;28;20053;-49
2021/05/17 07:33:39;;;;;;;0.30;0.30;;;16.20;86.00;;;;;;4193002;28;20044;-51
2021/05/17 07:36:01;;;;;;;2.42;1.02;;;16.20;85.90;;;;;;4192526;28;20045;-52
2021/05/17 07:38:27;;;;;;;0.00;0.00;;;16.20;85.90;;;;;;4192853;28;20044;-48
2021/05/17 07:40:49;;;;;;;0.80;0.80;;;16.30;85.90;;;;;;4176008;28;20144;-48
2021/05/17 07:43:10;;;;;;;0.22;0.22;;;16.30;86.30;;;;;;4176187;28;20458;-49
2021/05/17 07:45:39;;;;;;;0.00;0.00;;;16.30;86.40;;;;;;4176165;28;20059;-49
2021/05/17 07:48:02;;;;;;;0.00;0.00;;;16.30;86.00;;;;;;4189873;28;20094;-49
2021/05/17 07:50:24;;;;;;;0.00;0.00;;;16.30;85.90;;;;;;4191149;28;20135;-49
2021/05/17 07:52:46;;;;;;;1.33;1.25;;;16.30;85.80;;;;;;4177313;28;20381;-50
2021/05/17 07:55:09;;;;;;;0.25;0.08;;;16.30;85.80;;;;;;4175720;28;20049;-47
2021/05/17 07:57:31;;;;;;;0.28;0.28;;;16.30;85.70;;;;;;4175250;28;20045;-48
2021/05/17 07:59:54;;;;;;;0.00;0.00;;;16.30;85.70;;;;;;4177258;28;20044;-46
2021/05/17 08:02:20;;;;;;;4.07;0.52;;;16.30;85.70;;;;;;4191638;28;20072;-49
2021/05/17 08:04:43;;;;;;;3.20;0.90;;;16.30;85.60;;;;;;4191937;28;20499;-48
2021/05/17 08:07:05;;;;;;;0.00;0.00;;;16.30;85.60;;;;;;4192053;28;20105;-50
2021/05/17 08:09:27;;;;;;;0.98;0.90;;;16.30;85.60;;;;;;4191589;28;20041;-47
2021/05/17 08:11:50;;;;;;;0.85;0.75;;;16.30;85.50;;;;;;4176170;28;20068;-49
2021/05/17 08:14:12;;;;;;;0.20;0.20;;;16.30;85.40;;;;;;4175269;28;20060;-50
2021/05/17 08:16:34;;;;;;;3.30;1.13;;;16.30;86.20;;;;;;4175068;28;20049;-45
2021/05/17 08:18:57;;;;;;;0.00;0.00;;;16.30;85.30;;;;;;4180803;28;20050;-49
2021/05/17 08:21:20;;;;;;;0.00;0.00;;;16.30;85.30;;;;;;4191571;28;20134;-47
2021/05/17 08:23:41;;;;;;;0.40;0.40;;;16.30;85.30;;;;;;4194559;28;20086;-47
2021/05/17 08:26:05;;;;;;;0.25;0.25;;;16.30;85.30;;;;;;4208073;28;20044;-51
2021/05/17 08:28:27;;;;;;;0.05;0.05;;;16.20;85.20;;;;;;4208312;28;20709;-51
2021/05/17 08:30:54;;;;;;;0.40;0.40;;;16.30;85.20;;;;;;4207940;28;20551;-48
2021/05/17 08:33:16;;;;;;;0.10;0.10;;;16.30;85.20;;;;;;4208074;28;20048;-50
2021/05/17 08:35:38;;;;;;;0.95;0.95;;;16.30;85.10;;;;;;4208233;28;20407;-47
2021/05/17 08:38:00;;;;;;;0.10;0.10;;;16.30;85.00;;;;;;4206101;28;20433;-49
2021/05/17 08:40:25;;;;;;;0.00;0.00;;;16.30;84.90;;;;;;4197696;28;20048;-49
2021/05/17 08:42:47;;;;;;;0.52;0.52;;;16.30;84.80;;;;;;4208116;28;20059;-48
2021/05/17 08:45:10;;;;;;;0.70;0.70;;;16.40;84.70;;;;;;4207911;28;20040;-46
2021/05/17 08:47:32;;;;;;;0.20;0.20;;;16.40;84.60;;;;;;4207784;28;20436;-49
2021/05/17 08:49:54;;;;;;;0.00;0.00;;;16.50;84.40;;;;;;4208027;28;20063;-46
2021/05/17 08:52:16;;;;;;;0.15;0.15;;;16.60;84.10;;;;;;4207851;28;20067;-46
2021/05/17 08:54:38;;;;;;;0.25;0.25;;;16.60;83.80;;;;;;4208065;28;20048;-51
2021/05/17 08:57:00;;;;;;;0.93;0.20;;;16.60;83.70;;;;;;4195339;28;20060;-48
2021/05/17 08:59:24;;;;;;;1.85;1.08;;;16.60;83.60;;;;;;4207989;28;20540;-47
2021/05/17 09:01:46;;;;;;;0.00;0.00;;;16.60;83.40;;;;;;4200235;28;20048;-48
2021/05/17 09:04:11;;;;;;;0.00;0.00;;;16.60;83.40;;;;;;4175926;28;20487;-48
2021/05/17 09:06:40;;;;;;;7.72;1.17;;;16.60;83.30;;;;;;4174637;28;20041;-47
2021/05/17 09:09:04;;;;;;;0.00;0.00;;;16.70;83.30;;;;;;4190701;28;20118;-49
2021/05/17 09:11:31;;;;;;;1.17;0.63;;;16.70;83.10;;;;;;4191062;28;20052;-50
2021/05/17 09:14:07;;;;;;;0.20;0.20;;;16.70;83.00;;;;;;4190897;28;20126;-46
2021/05/17 09:16:44;;;;;;;0.50;0.40;;;16.70;82.90;;;;;;4190702;28;20131;-47
2021/05/17 09:19:11;;;;;;;0.82;0.82;;;16.70;82.80;;;;;;4190876;28;20141;-48
2021/05/17 09:21:55;;;;;;;0.00;0.00;;;16.70;82.80;;;;;;4196393;28;20064;-48
2021/05/17 09:24:33;;;;;;;0.75;0.75;;;16.70;82.80;;;;;;4196981;28;20052;-48
2021/05/17 09:26:56;;;;;;;0.20;0.20;;;16.70;82.80;;;;;;4200375;28;20073;-47
2021/05/17 09:29:23;;;;;;;0.10;0.10;;;16.70;82.70;;;;;;4213489;28;20414;-46
2021/05/17 09:31:46;;;;;;;1.55;0.43;;;16.70;82.60;;;;;;4212914;28;23006;-47
2021/05/17 09:34:08;;;;;;;0.40;0.32;;;16.70;82.60;;;;;;4195361;28;20086;-48
2021/05/17 09:36:31;;;;;;;1.40;1.40;;;16.70;82.50;;;;;;4196208;28;20131;-49
2021/05/17 09:39:00;;;;;;;1.15;0.70;;;16.80;82.50;;;;;;4196688;28;20044;-50
2021/05/17 09:41:22;;;;;;;0.10;0.10;;;16.70;82.20;;;;;;4196410;28;20488;-50
2021/05/17 09:43:46;;;;;;;0.63;0.63;;;16.70;82.10;;;;;;4181923;28;20049;-51
2021/05/17 09:46:10;;;;;;;0.10;0.10;;;16.80;82.10;;;;;;4196280;28;20063;-47
2021/05/17 09:48:46;;;;;;;0.05;0.05;;;16.80;82.60;;;;;;4193205;28;20075;-46
2021/05/17 09:51:10;;;;;;;0.70;0.70;;;16.90;82.80;;;;;;4181058;28;20049;-47
2021/05/17 09:53:34;;;;;;;0.10;0.10;;;17.00;82.30;;;;;;4190054;28;20055;-46
2021/05/17 09:55:56;;;;;;;0.30;0.30;;;17.10;82.10;;;;;;4184989;28;20048;-49
2021/05/17 09:58:43;;;;;;;0.10;0.10;;;17.20;81.60;;;;;;4185424;28;20049;-47
2021/05/17 10:01:13;;;;;;;1.08;0.52;;;17.20;81.10;;;;;;4189575;28;20127;-51
2021/05/17 10:03:38;;;;;;;0.55;0.55;;;17.20;81.00;;;;;;4203774;28;20055;-46
2021/05/17 10:05:59;;;;;;;0.20;0.20;;;17.20;81.00;;;;;;4213002;28;20550;-47
2021/05/17 10:08:22;;;;;;;0.00;0.00;;;17.20;81.80;;;;;;4208753;28;20048;-48
2021/05/17 10:10:44;;;;;;;0.00;0.00;;;17.20;80.90;;;;;;4197311;28;20044;-48
2021/05/17 10:13:06;;;;;;;0.43;0.43;;;17.20;80.80;;;;;;4197317;28;20218;-49
2021/05/17 10:15:29;;;;;;;0.10;0.10;;;17.20;80.70;;;;;;4180222;28;20546;-50
2021/05/17 10:18:03;;;;;;;0.20;0.20;;;17.20;80.70;;;;;;4179523;28;20102;-48
2021/05/17 10:20:25;;;;;;;0.00;0.00;;;17.20;80.60;;;;;;4179419;28;20087;-51
2021/05/17 10:22:48;;;;;;;0.10;0.10;;;17.20;80.60;;;;;;4184702;28;20065;-49
2021/05/17 10:25:12;;;;;;;0.03;0.03;;;17.20;80.30;;;;;;4194437;28;20064;-45
2021/05/17 10:27:39;;;;;;;0.38;0.28;;;17.20;80.20;;;;;;4196257;28;20072;-46
2021/05/17 10:30:03;;;;;;;1.77;1.65;;;17.20;80.90;;;;;;4178858;28;20094;-46
2021/05/17 10:32:40;;;;;;;0.10;0.10;;;17.20;80.10;;;;;;4183941;28;20045;-50
2021/05/17 10:35:11;;;;;;;0.20;0.20;;;17.20;80.10;;;;;;4188145;28;20055;-51
2021/05/17 10:37:32;;;;;;;0.45;0.45;;;17.20;80.10;;;;;;4205856;28;20109;-46
2021/05/17 10:40:03;;;;;;;0.45;0.45;;;17.20;80.10;;;;;;4201763;28;20044;-48
2021/05/17 10:42:42;;;;;;;0.75;0.75;;;17.20;80.30;;;;;;4192969;28;20049;-49
2021/05/17 10:47:48;;;;;;;0.00;0.00;;;17.10;80.50;;;;;;4196907;28;20076;-49
2021/05/17 10:50:15;;;;;;;0.70;0.70;;;17.00;80.50;;;;;;4188676;28;20048;-48
2021/05/17 10:52:37;;;;;;;0.20;0.20;;;17.00;80.70;;;;;;4191661;28;20070;-46
2021/05/17 10:55:08;;;;;;;1.38;0.90;;;17.00;80.90;;;;;;4190332;28;20052;-49
2021/05/17 10:57:33;;;;;;;;;;;17.00;81.10;;;;;;4176580;28;20111;-46
2021/05/17 11:02:38;;;;;;;0.10;0.10;;;17.10;81.50;;;;;;4192777;28;20049;-49
2021/05/17 11:05:01;;;;;;;0.00;0.00;;;17.10;81.50;;;;;;4193144;28;20072;-48
2021/05/17 11:07:29;;;;;;;0.00;0.00;;;17.20;81.60;;;;;;4193068;28;20049;-46
2021/05/17 11:10:08;;;;;;;1.02;0.93;;;17.30;81.40;;;;;;4192575;28;20090;-51
2021/05/17 11:13:07;;;;;;;0.90;0.88;;;17.30;81.10;;;;;;4192717;28;20059;-48
2021/05/17 11:15:55;;;;;;;0.40;0.40;;;17.40;80.80;;;;;;4192290;28;20136;-48
2021/05/17 11:18:23;;;;;;;0.52;0.52;;;17.40;80.60;;;;;;4192758;28;20121;-49
2021/05/17 11:20:48;;;;;;;0.70;0.70;;;17.40;80.60;;;;;;4192461;28;20445;-47
2021/05/17 11:23:12;;;;;;;0.00;0.00;;;17.40;80.50;;;;;;4192587;28;20044;-49
2021/05/17 11:25:57;;;;;;;0.10;0.10;;;17.40;80.40;;;;;;4192884;28;20048;-51
2021/05/17 11:28:43;;;;;;;1.38;0.98;;;17.50;80.30;;;;;;4192459;28;20490;-48
2021/05/17 11:31:12;;;;;;;0.43;0.43;;;17.50;80.20;;;;;;4191901;28;20538;-50
2021/05/17 11:33:48;;;;;;;1.40;1.35;;;17.50;80.00;;;;;;4192288;28;20060;-48
2021/05/17 11:36:17;;;;;;;0.63;0.63;;;17.60;80.00;;;;;;4192241;28;20279;-48
2021/05/17 11:39:03;;;;;;;1.98;1.73;;;17.60;79.90;;;;;;4192528;28;20048;-47
2021/05/17 11:41:29;;;;;;;0.08;0.08;;;17.60;79.70;;;;;;4192257;28;20073;-49
2021/05/17 11:43:51;;;;;;;0.20;0.20;;;17.60;79.60;;;;;;4192288;28;20040;-49
2021/05/17 11:46:16;;;;;;;0.03;0.03;;;17.70;79.50;;;;;;4191548;28;20080;-49
2021/05/17 11:48:39;;;;;;;3.33;1.35;;;17.70;79.30;;;;;;4192325;28;20058;-49
2021/05/17 11:51:01;;;;;;;0.40;0.40;;;17.70;79.20;;;;;;4192429;28;20144;-51
2021/05/17 11:53:22;;;;;;;0.30;0.30;;;17.70;79.00;;;;;;4192230;28;20052;-47
2021/05/17 11:55:53;;;;;;;0.63;0.63;;;17.70;79.70;;;;;;4192236;28;20044;-50
2021/05/17 11:58:22;;;;;;;0.00;0.00;;;17.70;78.70;;;;;;4192148;28;20055;-49
2021/05/17 12:00:44;;;;;;;0.15;0.15;;;17.70;78.50;;;;;;4192407;28;20079;-47
2021/05/17 12:03:10;;;;;;;0.45;0.45;;;17.70;78.40;;;;;;4192328;28;20135;-47
2021/05/17 12:05:34;;;;;;;1.13;1.13;;;17.70;79.20;;;;;;4192237;28;20533;-47
2021/05/17 12:07:57;;;;;;;0.15;0.15;;;17.70;78.20;;;;;;4192130;28;20073;-49
2021/05/17 12:10:21;;;;;;;0.43;0.43;;;17.70;78.20;;;;;;4191782;28;20045;-50
2021/05/17 12:12:44;;;;;;;0.08;0.08;;;17.70;78.00;;;;;;4191881;28;20075;-49
2021/05/17 12:15:09;;;;;;;0.25;0.25;;;17.70;78.00;;;;;;4191984;28;20115;-50
2021/05/17 12:17:32;;;;;;;0.10;0.10;;;17.70;78.10;;;;;;4201837;28;20126;-51
2021/05/17 12:19:56;;;;;;;0.43;0.43;;;17.70;78.10;;;;;;4191653;28;20047;-48
2021/05/17 12:22:22;;;;;;;2.50;0.57;;;17.70;78.10;;;;;;4196779;28;20315;-47
2021/05/17 12:24:44;;;;;;;1.35;1.25;;;17.70;78.10;;;;;;4207904;28;20048;-48
2021/05/17 12:27:08;;;;;;;0.03;0.03;;;17.70;78.00;;;;;;4208465;28;20089;-50
2021/05/17 12:29:49;;;;;;;0.20;0.20;;;17.70;77.90;;;;;;4208447;28;20055;-46
2021/05/17 12:32:11;;;;;;;0.50;0.50;;;17.70;78.00;;;;;;4208094;28;20052;-50
2021/05/17 12:34:32;;;;;;;0.00;0.00;;;17.70;78.00;;;;;;4202189;28;20131;-48
2021/05/17 12:36:54;;;;;;;0.00;0.00;;;17.70;77.90;;;;;;4191538;28;20095;-45
2021/05/17 12:39:17;;;;;;;7.60;1.50;;;17.70;77.80;;;;;;4191732;28;20430;-51
2021/05/17 12:41:40;;;;;;;0.10;0.10;;;17.70;77.60;;;;;;4191508;28;20505;-53
2021/05/17 12:44:03;;;;;;;0.00;0.00;;;17.70;77.70;;;;;;4191581;28;20411;-49
2021/05/17 12:46:29;;;;;;;0.20;0.20;;;17.70;77.70;;;;;;4191515;28;20047;-50
2021/05/17 12:48:53;;;;;;;0.38;0.38;;;17.70;77.70;;;;;;4191191;28;20048;-47
2021/05/17 12:51:18;;;;;;;0.00;0.00;;;17.70;77.70;;;;;;4177119;28;20139;-49